航空例行天氣報告

维基百科,自由的百科全书
跳转至: 导航搜索

航空例行天氣報告Meteorological Terminal Aviation Routine Weather Report,簡稱METAR)是一種例行的航空天氣報告,飛行員和航管員會使用它來評估機場天氣狀況。

航空例行天氣報告作為一種天氣報告,主要作用是向飛行員和航管員等通知該地區當前的天氣情況,並不包含天氣預報的預測資訊。然而,部分報告中亦可能含有 BECMG 關鍵字,用於表示當前天氣的變化趨勢。於較大型的機場附近,飛行員與航管員如需得知該日未來 24 小時的天氣預報資訊,則需另外查看 機場天氣預報 (TAF)。由於 METAR 無須對天氣狀況進行預測,絕大多數機場均有提供該項資訊,而需要專業氣象人員進行預測的 TAF 則通常僅於大型機場提供。

起源[编辑]

例行天氣報告的格式是在1968年1月1日制訂。但是跟隨美國聯邦航空局制度的美國加拿大在1996年7月1日才啟用和國際格式大致相同的例行天氣報告。

例行天氣報告的英文---METAR和國際緊急求救信號(Mayday)一樣也是從法語演變過。METAR在法語原本的寫法是"message d'observation météorologique régulière pour l'aviation,",指航空氣象狀況例行觀測所得的信息,之後人們就拿這幾個詞語的字頭M-E-T-A-R來作其名稱。美國聯邦航空局美國國家氣象局將METAR在英語的角度看成為METeorological Aerodrome Report,這也視作METAR名稱的由來。

內容[编辑]

一個METAR是包括了溫度露點溫度風向的資訊,能見度和給飛行員修正高度錶的氣壓讀數。除此之外,METAR還可以包括降水,和其他特別天氣狀況的資訊。

該報告為每隔一小時或半小時發出一次的定期例行報告。[1]當兩次報告時間間隔內的天氣狀況有顯著改變時,則可能發佈 SPECI 報告。該報告與 METAR 相比,除開頭使用 SPECI 關鍵字外,格式完全相同。

天氣現象代碼[编辑]

以下為例行天氣報告中,描述天氣現象的代碼及意義[2]

強度或鄰近 描述 降水 遮蔽 其他
- MI 淺薄( DZ 毛雨 BR PO
PR 部分(霧) RA FG SQ
+ BC Patches(霧) SN FU FC 漏斗雲、龍捲風水龍卷
VC 鄰近 DR 低吹 SG 雪粒 VA 火山灰 SS 沙暴
BL IC 冰晶 DU 沙塵暴 DS 塵暴
SH 陣性 PL SA
TS 雷暴 GR HZ
FZ GS PY 海沫、水沫
UP 不明降水

國際式航空例行天氣報告[编辑]

以下的一個METAR來自香港國際機場

   METAR VHHH 251600Z 24015G25KT 200V280 0600 R07L/1000U FG DZ SCT010 OVC020 17/16 Q1018 BECMG TL1700 0800 FG BECMG AT 1800 9999 NSW=
  • VHHH 國際民航組織(ICAO)的機場代號
  • 251600Z 發出於該月25日16:00協調世界時(UTC)
  • 24015G25KT 風向240度,風速15節,陣風25節(如果風速是國際單位制的米每秒,就會使用MPS後綴)
  • 200V280 風向除了在240度外,還不時在200-280度間轉變。(200Variable280)
  • 0600 能見度600米
  • R07L/1000U 07L/25R跑道視程為1000米,而跑道視程的數值在過去10分鐘有上升趨勢
  • FG DZ 有霧及毛毛雨
  • SCT010於1000英呎有疏雲或多雲(Scattered, 3/8 - 4/8)
  • OVC020於2000英呎有八份雲(Overcast, 8/8)
  • 17/16地面溫度17度,露點16度
  • Q1018氣壓為1018百帕斯卡(QNH1018)
  • BECMG TL1700 0800 FG 有霧,能見度逐漸轉變,到17:00協調世界時(UTC)時為800米
  • BECMG AT 1800 9999 NSW 18:00協調世界時(UTC)時,能見度逐漸轉為10公里或以上,且無重要天氣狀況

美式航空例行天氣報告[编辑]

美國及加拿大機場所發出的航空例行天氣報告雖然信息排列上上跟國際樣式一樣,可是在表達上稍有不同,下面是一個以甘迺迪國際機場作例子的METAR。

   METAR KJFK 051853Z 04011KT 1/2SM VCTS SN FZFG BKN003 OVC010 M02/M02 A3006 RMK AO2 
  • KJFK 國際民航組織(ICAO)的機場代號
  • 051853z發出於該月5日1853協調世界時(UTC)
  • 04011KT風向040度,風速11节
  • 1/2SM能見度半英里(half statute miles)
  • VCTS附近有雷暴
  • SN中等程度的雪
  • FZFG霜霧
  • BKN003於300英呎有5-7份雲(Broken three hundred)
  • OVC010於1000英呎有8份雲(Overcast one thousand)
  • M02/M02地面溫度負2度,露點負2度
  • A3006氣壓30.06吋(Altimeter 3006)
  • RMK備註
  • AO2該機場有降水感應器

參考資料[编辑]

  1. ^ 機場天氣報告 (METAR/SPECI). www.weather.gov.hk. [2018-03-20] (中文(香港)‎). 
  2. ^ 剖析METAR/SPECI電碼的意義. 香港天文台. 2011-08-15 [2018-03-19] (中文(繁體)‎). 

外部連結[编辑]